Tempo Aeroporto - Stazione meteorologica di Pomezia (RM)


   

Webcam Castelli Romani more information Webcam Castelli Romani


Webcam Traffico live more information Webcam Traffico live


altri nostri siti meteo:

Pomeziameteo 1Sito sul meteo

Pomeziameteo DashboardSito sul meteo

Caput FrigorisSito sul meteo

BarcellonameteoSito sul meteo

MeteoipassiSito sul meteo

ViterbometeoSito sul meteo

TortoretometeolidoSito sul meteo

MeteospinacetoSito sul meteo

MeteoardeaSito sul meteo

MeteopalestrinaSito sul meteo

MeteocastelliSito sul meteo

MeteoiserniaSito sul meteo

RomaeurmeteoSito sul meteo

MeteomarconiaSito sul meteo

CastelnuovovomanometeoSito sul meteo

MeteogonzagaSito sul meteo

MeteonetworkInvio dai a Meteonetwork

Rete Linea MeteoInvio dai a Meteonetwork



Nessuna attenzione particolare richiesta.    Non ci sono allerte meteo

Report METAR

   
LIRE - Pratica di mare
Dati ricevuti: 24-04-2018 00:55
Sereno  
Sereno  
   Vento: NE 3.7 km/h
Vento: NE 3.7 km/h
Temperatura: 14°C
P.to Rugiada: 13°C
Umidita: 94%
Barometro: 1019 hPa
Visibilita: oltre 10 km
dettagli cloud: Sereno
LIRE 232255Z 06002KT CAVOK 14/13 Q1019 RMK SKC VIS MIN 9999 WIND THR13 05002KT WIND THR31 06002KT BLU
LIRF - Fiumicino
Dati ricevuti: 24-04-2018 00:50
Sereno  
Sereno  
   Vento: W 5.6 km/h
Vento: W 5.6 km/h
Temperatura: 16°C
P.to Rugiada: 15°C
Umidita: 94%
Barometro: 1018 hPa
Visibilita: oltre 10 km
dettagli cloud: Sereno
LIRF 232250Z 29003KT CAVOK 16/15 Q1018 NOSIG
LIRA - Ciampino
Dati ricevuti: 24-04-2018 00:50
Sereno  
Sereno  
   Vento: S 5.6 km/h
Vento: S 5.6 km/h
Temperatura: 14°C
P.to Rugiada: 12°C
Umidita: 88%
Barometro: 1019 hPa
Visibilita: oltre 10 km
dettagli cloud: Sereno
LIRA 232250Z 15003KT CAVOK 14/12 Q1019
LIRL - Latina
Dati ricevuti: 23-04-2018 19:55
DATI Obsoleti
Sereno  
Sereno  
   Vento: W 9.3 km/h
Vento: W 9.3 km/h
Temperatura: 21°C
P.to Rugiada: 11°C
Umidita: 53%
Barometro: 1017 hPa
Visibilita: oltre 10 km
dettagli cloud: Sereno
LIRL 231755Z 29005KT CAVOK 21/11 Q1017
  

Script sviluppato da  Saratoga-weather.org Adattato per il modello da  Weerstation Leuven

Potete trovare le nostre info meteo anche a:

UK Metoffice

European Weather Network

Weather Underground

AWEKAS

Citizen Weather Observer Program (CWOP)

HAMweather, WeatherForYou, PWS Weather

Strumentazione usata:

Stazione meteo
Davis VP2

Programma gestore dati meteo
WVIEW

Server per i dati meteo
Pc-WDS5

Provider
PC-HP-6005

Davis VP2

WVIEW

Pc-WDS5

PC-HP-6005